Time;durP1;ratioP1;P1;durP2;ratioP2;P2;SDS_P1;SDS_P2;PMS_P1;PMS_P2;Temp;Humidity;BMP_temperature;BMP_pressure;BME280_temperature;BME280_humidity;BME280_pressure;Samples;Min_cycle;Max_cycle;Signal;HPM_P1;HPM_P2
2021/09/23 00:00:04;;;;;;;2.55;2.20;;;19.40;75.30;;;;;;5092610;28;20051;-55
2021/09/23 00:05:30;;;;;;;2.65;2.35;;;19.40;75.30;;;;;;5089074;28;20087;-53
2021/09/23 00:07:57;;;;;;;2.90;2.28;;;19.40;75.40;;;;;;5090618;28;20044;-53
2021/09/23 00:10:29;;;;;;;3.58;2.50;;;19.40;75.30;;;;;;5090541;28;20055;-53
2021/09/23 00:12:57;;;;;;;3.10;2.42;;;19.40;75.30;;;;;;5090066;28;20530;-54
2021/09/23 00:15:24;;;;;;;2.40;2.20;;;19.30;75.30;;;;;;5089766;28;20043;-52
2021/09/23 00:17:54;;;;;;;3.95;2.28;;;19.40;75.30;;;;;;5089516;28;20062;-52
2021/09/23 00:20:23;;;;;;;2.75;2.40;;;19.40;75.30;;;;;;5090080;28;20439;-54
2021/09/23 00:22:49;;;;;;;2.95;2.50;;;19.40;75.30;;;;;;5089703;28;20109;-52
2021/09/23 00:25:15;;;;;;;3.90;3.08;;;19.40;75.30;;;;;;5090153;28;20044;-56
2021/09/23 00:27:41;;;;;;;3.10;2.50;;;19.40;75.30;;;;;;5090184;28;20423;-52
2021/09/23 00:30:09;;;;;;;3.22;2.70;;;19.40;75.30;;;;;;5089835;28;20052;-53
2021/09/23 00:32:35;;;;;;;2.97;2.40;;;19.30;75.20;;;;;;5090222;28;20044;-53
2021/09/23 00:35:02;;;;;;;2.78;2.45;;;19.40;75.30;;;;;;5089541;28;20048;-54
2021/09/23 00:37:28;;;;;;;3.85;3.03;;;19.40;75.30;;;;;;5088832;28;20434;-53
2021/09/23 00:39:54;;;;;;;3.38;2.72;;;19.40;75.30;;;;;;5089804;28;20040;-53
2021/09/23 00:42:19;;;;;;;3.67;3.10;;;19.40;75.20;;;;;;5088189;28;20076;-53
2021/09/23 00:44:55;;;;;;;2.92;2.60;;;19.40;75.30;;;;;;5092081;28;20072;-54
2021/09/23 00:47:20;;;;;;;;;;;19.40;75.30;;;;;;5091786;28;20117;-54
2021/09/23 00:49:46;;;;;;;3.42;2.78;;;19.30;75.90;;;;;;5091540;28;20322;-53
2021/09/23 00:52:11;;;;;;;3.10;2.70;;;19.30;75.30;;;;;;5091451;28;20497;-49
2021/09/23 00:54:37;;;;;;;3.10;2.50;;;19.30;75.30;;;;;;5091872;28;20040;-51
2021/09/23 00:57:03;;;;;;;3.67;3.15;;;19.30;75.30;;;;;;5091921;28;20047;-54
2021/09/23 00:59:29;;;;;;;2.83;2.53;;;19.30;75.30;;;;;;5092251;28;20093;-51
2021/09/23 01:01:54;;;;;;;3.20;2.85;;;19.30;75.20;;;;;;5091540;28;20381;-52
2021/09/23 01:04:20;;;;;;;3.78;2.50;;;19.30;75.20;;;;;;5091730;28;20074;-54
2021/09/23 01:06:50;;;;;;;2.60;2.30;;;19.30;75.30;;;;;;5091607;28;20044;-54
2021/09/23 01:09:17;;;;;;;2.78;2.47;;;19.30;75.20;;;;;;5090968;28;20035;-52
2021/09/23 01:11:43;;;;;;;2.92;2.63;;;19.40;75.30;;;;;;5090582;28;20076;-54
2021/09/23 01:14:10;;;;;;;3.50;3.03;;;19.30;75.20;;;;;;5090851;28;20052;-53
2021/09/23 01:16:37;;;;;;;3.00;2.70;;;19.30;75.20;;;;;;5093667;28;20399;-53
2021/09/23 01:19:03;;;;;;;2.95;2.30;;;19.30;75.20;;;;;;5095184;28;20051;-54
2021/09/23 01:21:29;;;;;;;3.30;2.78;;;19.40;75.20;;;;;;5095434;28;20044;-53
2021/09/23 01:23:54;;;;;;;3.47;3.00;;;19.30;75.20;;;;;;5095421;28;20360;-52
2021/09/23 01:26:26;;;;;;;3.08;2.70;;;19.30;75.20;;;;;;5095378;28;20086;-51
2021/09/23 01:28:53;;;;;;;3.17;2.88;;;19.30;75.10;;;;;;5095473;28;20039;-53
2021/09/23 01:31:20;;;;;;;3.47;2.80;;;19.30;75.20;;;;;;5095310;28;20108;-53
2021/09/23 01:33:45;;;;;;;3.67;2.95;;;19.30;75.20;;;;;;5095171;28;20381;-54
2021/09/23 01:36:11;;;;;;;3.45;2.80;;;19.30;75.10;;;;;;5095075;28;20101;-54
2021/09/23 01:38:37;;;;;;;3.38;2.80;;;19.30;75.10;;;;;;5094772;28;20492;-57
2021/09/23 01:41:02;;;;;;;3.58;2.80;;;19.30;75.10;;;;;;5094680;28;20039;-54
2021/09/23 01:43:28;;;;;;;4.05;3.22;;;19.30;75.10;;;;;;5095209;28;20464;-54
2021/09/23 01:45:55;;;;;;;3.15;2.63;;;19.30;75.10;;;;;;5094958;28;20036;-53
2021/09/23 01:48:20;;;;;;;3.85;3.05;;;19.30;75.10;;;;;;5094261;28;20040;-55
2021/09/23 01:50:46;;;;;;;3.78;3.15;;;19.30;75.10;;;;;;5094723;28;20052;-52
2021/09/23 01:53:11;;;;;;;3.35;3.00;;;19.30;75.10;;;;;;5094930;28;20048;-51
2021/09/23 01:55:37;;;;;;;3.58;2.83;;;19.30;75.10;;;;;;5094458;28;20068;-53
2021/09/23 01:58:03;;;;;;;4.15;3.45;;;19.30;75.10;;;;;;5094576;28;20142;-53
2021/09/23 02:00:29;;;;;;;4.05;3.22;;;19.30;75.10;;;;;;5094998;28;20040;-56
2021/09/23 02:02:55;;;;;;;4.25;3.35;;;19.30;75.10;;;;;;5094902;28;20043;-54
2021/09/23 02:05:21;;;;;;;3.75;2.92;;;19.30;75.20;;;;;;5094827;28;20040;-54
2021/09/23 02:07:47;;;;;;;3.30;2.90;;;19.30;75.10;;;;;;5095203;28;20145;-52
2021/09/23 02:10:14;;;;;;;3.58;2.92;;;19.30;75.10;;;;;;5094493;28;20047;-54
2021/09/23 02:12:39;;;;;;;4.07;3.38;;;19.30;75.10;;;;;;5094331;28;20119;-55
2021/09/23 02:15:06;;;;;;;3.83;3.20;;;19.30;75.10;;;;;;5095425;28;20123;-55
2021/09/23 02:17:32;;;;;;;3.42;3.00;;;19.30;75.10;;;;;;5094197;28;20097;-56
2021/09/23 02:19:58;;;;;;;4.10;3.30;;;19.30;75.10;;;;;;5094705;28;20043;-55
2021/09/23 02:22:25;;;;;;;3.67;3.30;;;19.30;75.10;;;;;;5094770;28;20091;-51
2021/09/23 02:24:51;;;;;;;3.20;2.78;;;19.30;75.10;;;;;;5094204;28;20043;-54
2021/09/23 02:27:17;;;;;;;3.95;2.88;;;19.30;75.10;;;;;;5093663;28;20040;-54
2021/09/23 02:29:43;;;;;;;4.05;3.38;;;19.30;75.10;;;;;;5094359;28;20056;-54
2021/09/23 02:32:09;;;;;;;3.85;3.13;;;19.30;75.10;;;;;;5093853;28;20067;-52
2021/09/23 02:34:35;;;;;;;4.03;3.25;;;19.30;75.10;;;;;;5094662;28;20079;-53
2021/09/23 02:37:01;;;;;;;3.92;2.95;;;19.30;75.10;;;;;;5094068;28;20044;-52
2021/09/23 02:39:27;;;;;;;4.50;3.83;;;19.30;75.10;;;;;;5094104;28;20562;-53
2021/09/23 02:41:53;;;;;;;4.75;3.47;;;19.30;75.10;;;;;;5093931;28;20044;-53
2021/09/23 02:44:19;;;;;;;4.13;3.42;;;19.30;75.10;;;;;;5094064;28;20043;-50
2021/09/23 02:46:45;;;;;;;4.68;3.38;;;19.30;75.10;;;;;;5093894;28;20040;-50
2021/09/23 02:49:11;;;;;;;4.18;3.40;;;19.30;75.10;;;;;;5093476;28;20036;-53
2021/09/23 02:51:37;;;;;;;3.63;3.20;;;19.30;75.10;;;;;;5093693;28;20437;-54
2021/09/23 02:54:02;;;;;;;4.43;3.42;;;19.30;75.10;;;;;;5094196;28;20048;-50
2021/09/23 02:56:28;;;;;;;4.78;3.58;;;19.30;75.10;;;;;;5093685;28;20365;-52
2021/09/23 02:58:54;;;;;;;4.68;3.20;;;19.30;75.10;;;;;;5093688;28;20036;-50
2021/09/23 03:01:21;;;;;;;4.80;3.67;;;19.30;75.10;;;;;;5092181;28;20039;-50
2021/09/23 03:03:47;;;;;;;4.13;3.67;;;19.30;75.10;;;;;;5093374;28;20040;-50
2021/09/23 03:06:13;;;;;;;3.92;3.22;;;19.30;75.10;;;;;;5093786;28;20122;-53
2021/09/23 03:08:39;;;;;;;4.40;3.88;;;19.30;75.10;;;;;;5093169;28;20044;-50
2021/09/23 03:11:05;;;;;;;4.28;3.38;;;19.30;75.10;;;;;;5092135;28;20048;-50
2021/09/23 03:13:31;;;;;;;5.07;3.72;;;19.30;75.10;;;;;;5092986;28;20123;-51
2021/09/23 03:15:58;;;;;;;3.42;3.13;;;19.30;75.00;;;;;;5092905;28;20075;-57
2021/09/23 03:18:23;;;;;;;4.60;3.85;;;19.30;75.10;;;;;;5092898;28;20050;-53
2021/09/23 03:20:49;;;;;;;4.22;3.25;;;19.30;75.10;;;;;;5093602;28;20039;-55
2021/09/23 03:23:15;;;;;;;5.05;3.80;;;19.30;75.10;;;;;;5093149;28;20086;-55
2021/09/23 03:25:41;;;;;;;4.47;3.50;;;19.30;75.10;;;;;;5093074;28;20082;-54
2021/09/23 03:28:07;;;;;;;4.78;3.63;;;19.30;75.10;;;;;;5092919;28;20128;-54
2021/09/23 03:30:34;;;;;;;4.13;3.30;;;19.30;75.10;;;;;;5093055;28;20126;-53
2021/09/23 03:33:05;;;;;;;4.97;3.90;;;19.30;75.00;;;;;;5090981;28;20093;-52
2021/09/23 03:35:32;;;;;;;4.30;3.60;;;19.30;75.00;;;;;;5093007;28;20032;-52
2021/09/23 03:37:58;;;;;;;3.55;3.05;;;19.30;75.10;;;;;;5093035;28;20054;-55
2021/09/23 03:40:24;;;;;;;4.30;3.65;;;19.30;75.00;;;;;;5090741;28;20040;-53
2021/09/23 03:42:51;;;;;;;3.90;3.30;;;19.30;75.00;;;;;;5092894;28;20054;-50
2021/09/23 03:45:17;;;;;;;4.95;3.75;;;19.30;75.00;;;;;;5092044;28;20036;-52
2021/09/23 03:47:43;;;;;;;4.85;3.97;;;19.30;75.00;;;;;;5090736;28;20047;-55
2021/09/23 03:50:09;;;;;;;4.50;3.70;;;19.30;75.00;;;;;;5092144;28;20403;-53
2021/09/23 03:52:35;;;;;;;5.03;3.92;;;19.30;75.00;;;;;;5092683;28;20047;-54
2021/09/23 03:55:01;;;;;;;4.45;3.53;;;19.30;75.10;;;;;;5092695;28;20796;-53
2021/09/23 03:57:27;;;;;;;4.80;3.80;;;19.20;75.00;;;;;;5092364;28;20503;-52
2021/09/23 03:59:53;;;;;;;4.93;4.00;;;19.30;75.00;;;;;;5092733;28;20040;-53
2021/09/23 04:02:19;;;;;;;5.72;3.70;;;19.30;75.00;;;;;;5092225;28;20043;-51
2021/09/23 04:04:44;;;;;;;4.28;3.30;;;19.30;75.00;;;;;;5092436;28;20521;-50
2021/09/23 04:07:10;;;;;;;4.95;3.70;;;19.20;75.00;;;;;;5092375;28;20123;-52
2021/09/23 04:09:36;;;;;;;4.85;3.88;;;19.30;75.00;;;;;;5092956;28;20040;-48
2021/09/23 04:12:02;;;;;;;4.43;4.00;;;19.30;75.00;;;;;;5092135;28;20395;-48
2021/09/23 04:14:27;;;;;;;5.20;4.18;;;19.20;75.00;;;;;;5092372;28;20519;-52
2021/09/23 04:16:53;;;;;;;4.88;3.95;;;19.30;75.00;;;;;;5090342;28;20052;-54
2021/09/23 04:19:19;;;;;;;4.88;3.70;;;19.30;75.00;;;;;;5092156;28;20119;-50
2021/09/23 04:21:45;;;;;;;4.22;3.67;;;19.20;74.90;;;;;;5092610;28;20048;-50
2021/09/23 04:24:10;;;;;;;4.45;3.45;;;19.30;75.00;;;;;;5092849;28;20060;-51
2021/09/23 04:26:36;;;;;;;4.63;3.80;;;19.20;74.90;;;;;;5091828;28;20484;-53
2021/09/23 04:29:02;;;;;;;4.65;3.90;;;19.20;74.90;;;;;;5093070;28;20101;-50
2021/09/23 04:31:28;;;;;;;5.20;3.80;;;19.20;74.90;;;;;;5092653;28;20044;-53
2021/09/23 04:33:54;;;;;;;4.80;3.90;;;19.30;75.00;;;;;;5092157;28;20058;-53
2021/09/23 04:36:20;;;;;;;4.93;3.80;;;19.30;75.00;;;;;;5092292;28;20042;-51
2021/09/23 04:38:45;;;;;;;4.05;3.35;;;19.30;75.00;;;;;;5091671;28;20488;-53
2021/09/23 04:41:11;;;;;;;4.68;3.70;;;19.20;75.00;;;;;;5092147;28;20044;-53
2021/09/23 04:43:40;;;;;;;4.55;3.53;;;19.20;74.90;;;;;;5091883;28;20051;-52
2021/09/23 04:46:07;;;;;;;5.82;3.70;;;19.20;74.90;;;;;;5091944;28;20040;-52
2021/09/23 04:48:32;;;;;;;4.80;3.70;;;19.20;75.00;;;;;;5091062;28;20042;-54
2021/09/23 04:50:58;;;;;;;5.22;3.90;;;19.20;75.00;;;;;;5093088;28;20048;-50
2021/09/23 04:53:24;;;;;;;4.90;3.67;;;19.20;75.00;;;;;;5096034;28;20173;-53
2021/09/23 04:55:49;;;;;;;4.15;3.30;;;19.20;75.00;;;;;;5096079;28;20044;-53
2021/09/23 04:58:15;;;;;;;4.95;4.00;;;19.20;75.00;;;;;;5095346;28;20445;-48
2021/09/23 05:00:41;;;;;;;4.75;3.70;;;19.20;75.00;;;;;;5094541;28;20109;-52
2021/09/23 05:03:07;;;;;;;4.72;4.00;;;19.20;75.60;;;;;;5095893;28;20083;-53
2021/09/23 05:05:33;;;;;;;4.65;3.85;;;19.20;74.90;;;;;;5095828;28;20102;-52
2021/09/23 05:07:58;;;;;;;4.57;3.50;;;19.20;75.00;;;;;;5095840;28;20094;-52
2021/09/23 05:10:25;;;;;;;4.28;3.55;;;19.30;75.00;;;;;;5095411;28;20040;-52
2021/09/23 05:12:51;;;;;;;6.22;3.78;;;19.20;75.00;;;;;;5096049;28;20033;-55
2021/09/23 05:15:16;;;;;;;4.80;3.70;;;19.20;75.00;;;;;;5095293;28;20392;-54
2021/09/23 05:17:42;;;;;;;4.90;3.83;;;19.20;75.00;;;;;;5094891;28;20075;-52
2021/09/23 05:20:08;;;;;;;4.47;3.45;;;19.20;75.00;;;;;;5094231;28;20040;-50
2021/09/23 05:22:35;;;;;;;5.32;3.67;;;19.20;75.00;;;;;;5094333;28;20541;-49
2021/09/23 05:25:01;;;;;;;6.10;3.83;;;19.30;75.10;;;;;;5094361;28;20043;-51
2021/09/23 05:27:27;;;;;;;5.22;3.78;;;19.20;75.00;;;;;;5094680;28;20056;-58
2021/09/23 05:29:52;;;;;;;4.28;3.30;;;19.20;75.00;;;;;;5095360;28;20044;-57
2021/09/23 05:32:18;;;;;;;4.72;3.38;;;19.20;75.00;;;;;;5095134;28;20040;-57
2021/09/23 05:34:44;;;;;;;4.93;3.65;;;19.20;75.00;;;;;;5094306;28;20484;-57
2021/09/23 05:37:10;;;;;;;5.72;4.43;;;19.20;75.00;;;;;;5094533;28;20136;-58
2021/09/23 05:39:36;;;;;;;3.95;3.50;;;19.20;75.00;;;;;;5095615;28;20044;-56
2021/09/23 05:42:02;;;;;;;4.57;3.67;;;19.20;75.00;;;;;;5095124;28;20069;-56
2021/09/23 05:44:29;;;;;;;3.85;3.13;;;19.20;75.00;;;;;;5095007;28;20560;-54
2021/09/23 05:46:55;;;;;;;5.50;4.13;;;19.20;75.10;;;;;;5094889;28;20042;-57
2021/09/23 05:49:22;;;;;;;4.97;3.75;;;19.20;75.00;;;;;;5094417;28;20166;-54
2021/09/23 05:51:49;;;;;;;5.20;3.75;;;19.20;75.00;;;;;;5076062;28;20044;-55
2021/09/23 05:54:14;;;;;;;5.05;4.07;;;19.20;75.00;;;;;;5095176;28;20036;-57
2021/09/23 05:56:41;;;;;;;3.95;3.13;;;19.20;75.00;;;;;;5094605;28;20062;-56
2021/09/23 05:59:07;;;;;;;3.83;3.05;;;19.20;75.00;;;;;;5095212;28;20119;-58
2021/09/23 06:01:33;;;;;;;4.53;3.55;;;19.20;75.00;;;;;;5094133;28;20044;-55
2021/09/23 06:03:59;;;;;;;4.47;3.47;;;19.20;75.00;;;;;;5093407;28;20104;-57
2021/09/23 06:06:25;;;;;;;5.03;3.65;;;19.20;75.00;;;;;;5093570;28;20110;-53
2021/09/23 06:08:51;;;;;;;4.32;3.35;;;19.20;75.00;;;;;;5092241;28;20058;-56
2021/09/23 06:11:17;;;;;;;4.60;3.53;;;19.20;75.00;;;;;;5094774;28;20383;-52
2021/09/23 06:13:46;;;;;;;4.10;3.70;;;19.20;75.00;;;;;;5094676;28;20186;-52
2021/09/23 06:16:12;;;;;;;5.50;3.80;;;19.10;75.00;;;;;;5094477;28;20036;-55
2021/09/23 06:18:38;;;;;;;4.80;3.47;;;19.20;75.00;;;;;;5093653;28;20064;-55
2021/09/23 06:21:07;;;;;;;4.40;3.55;;;19.20;75.10;;;;;;5094724;28;20040;-55
2021/09/23 06:23:36;;;;;;;4.70;3.38;;;19.20;75.00;;;;;;5094220;28;20392;-53
2021/09/23 06:26:02;;;;;;;4.93;3.70;;;19.20;75.00;;;;;;5094307;28;20044;-54
2021/09/23 06:28:29;;;;;;;4.18;3.47;;;19.20;75.00;;;;;;5094713;28;20052;-52
2021/09/23 06:30:56;;;;;;;4.25;3.65;;;19.20;75.00;;;;;;5094220;28;20035;-55
2021/09/23 06:33:22;;;;;;;5.40;3.85;;;19.20;75.00;;;;;;5094228;28;20182;-54
2021/09/23 06:35:48;;;;;;;5.05;3.45;;;19.20;75.00;;;;;;5094001;28;20181;-55
2021/09/23 06:38:13;;;;;;;4.47;3.17;;;19.20;75.10;;;;;;5094459;28;20067;-55
2021/09/23 06:40:39;;;;;;;4.10;2.92;;;19.20;75.00;;;;;;5094116;28;20047;-53
2021/09/23 06:43:05;;;;;;;3.40;3.00;;;19.20;75.00;;;;;;5094470;28;20178;-54
2021/09/23 06:45:30;;;;;;;4.50;3.85;;;19.20;75.00;;;;;;5093873;28;20040;-53
2021/09/23 06:47:56;;;;;;;3.47;3.05;;;19.20;75.00;;;;;;5093757;28;20051;-53
2021/09/23 06:50:22;;;;;;;4.45;3.50;;;19.20;75.00;;;;;;5093896;28;20044;-54
2021/09/23 06:52:47;;;;;;;4.05;3.33;;;19.20;75.00;;;;;;5093873;28;20377;-54
2021/09/23 06:55:13;;;;;;;4.38;3.28;;;19.20;75.10;;;;;;5093330;28;20123;-55
2021/09/23 06:57:39;;;;;;;3.75;2.97;;;19.20;75.00;;;;;;5093507;28;20047;-54
2021/09/23 07:00:06;;;;;;;3.53;3.22;;;19.20;75.00;;;;;;5093932;28;20412;-53
2021/09/23 07:02:31;;;;;;;3.92;3.05;;;19.20;75.00;;;;;;5091673;28;20091;-55
2021/09/23 07:04:57;;;;;;;4.60;3.40;;;19.20;75.10;;;;;;5093336;28;20262;-56
2021/09/23 07:07:23;;;;;;;3.50;2.92;;;19.20;75.10;;;;;;5093194;28;20044;-56
2021/09/23 07:09:48;;;;;;;4.32;3.25;;;19.20;75.10;;;;;;5093209;28;20039;-57
2021/09/23 07:12:14;;;;;;;3.50;2.70;;;19.20;75.10;;;;;;5093623;28;20044;-57
2021/09/23 07:14:40;;;;;;;4.47;2.85;;;19.20;75.10;;;;;;5092816;28;20118;-57
2021/09/23 07:17:06;;;;;;;3.60;3.20;;;19.20;75.00;;;;;;5092520;28;20044;-53
2021/09/23 07:19:31;;;;;;;4.07;3.13;;;19.20;75.10;;;;;;5092541;28;20044;-57
2021/09/23 07:21:58;;;;;;;3.45;2.83;;;19.20;75.00;;;;;;5092931;28;20090;-52
2021/09/23 07:24:25;;;;;;;3.90;2.95;;;19.20;75.00;;;;;;5093429;28;20068;-57
2021/09/23 07:26:50;;;;;;;4.20;3.60;;;19.20;75.10;;;;;;5092000;28;20042;-57
2021/09/23 07:29:16;;;;;;;4.00;2.80;;;19.20;75.10;;;;;;5080234;28;20119;-57
2021/09/23 07:31:43;;;;;;;3.45;2.90;;;19.20;75.10;;;;;;5074982;28;20507;-57
2021/09/23 07:34:10;;;;;;;3.47;2.92;;;19.20;75.10;;;;;;5093075;28;20845;-57
2021/09/23 07:36:35;;;;;;;4.10;3.33;;;19.20;75.10;;;;;;5092085;28;20048;-57
2021/09/23 07:39:04;;;;;;;4.07;3.15;;;19.20;75.10;;;;;;5092762;28;20115;-57
2021/09/23 07:41:30;;;;;;;3.38;3.03;;;19.20;75.10;;;;;;5092533;28;20055;-55
2021/09/23 07:43:55;;;;;;;3.00;2.58;;;19.20;75.10;;;;;;5091716;28;20048;-57
2021/09/23 07:46:21;;;;;;;3.55;2.85;;;19.20;75.10;;;;;;5093237;28;20089;-56
2021/09/23 07:48:50;;;;;;;3.35;2.83;;;19.20;75.10;;;;;;5091908;28;20051;-57
2021/09/23 07:51:15;;;;;;;4.82;3.20;;;19.20;75.10;;;;;;5080298;28;20149;-50
2021/09/23 07:53:41;;;;;;;3.40;2.88;;;19.20;75.10;;;;;;5092932;28;20117;-58
2021/09/23 07:56:06;;;;;;;2.97;2.50;;;19.20;75.10;;;;;;5092881;28;20071;-57
2021/09/23 07:58:34;;;;;;;4.38;2.92;;;19.20;75.10;;;;;;5091173;28;20108;-57
2021/09/23 08:01:00;;;;;;;3.20;2.80;;;19.20;75.10;;;;;;5092715;28;20051;-57
2021/09/23 08:03:26;;;;;;;3.40;2.50;;;19.20;75.10;;;;;;5090465;28;20051;-51
2021/09/23 08:05:51;;;;;;;4.75;3.35;;;19.20;75.10;;;;;;5082545;28;20085;-57
2021/09/23 08:08:17;;;;;;;3.53;2.80;;;19.20;75.10;;;;;;5092370;28;20464;-55
2021/09/23 08:10:42;;;;;;;3.58;3.03;;;19.20;75.10;;;;;;5090539;28;20134;-51
2021/09/23 08:13:08;;;;;;;3.70;2.60;;;19.20;75.10;;;;;;5090870;28;20123;-54
2021/09/23 08:15:34;;;;;;;3.97;3.05;;;19.20;75.10;;;;;;5090561;28;20093;-56
2021/09/23 08:18:00;;;;;;;4.35;3.20;;;19.20;75.10;;;;;;5090299;28;20147;-55
2021/09/23 08:20:25;;;;;;;4.75;3.05;;;19.20;75.10;;;;;;5091578;28;20062;-54
2021/09/23 08:22:51;;;;;;;3.85;3.33;;;19.20;75.10;;;;;;5092409;28;20059;-48
2021/09/23 08:25:16;;;;;;;3.25;2.80;;;19.20;75.10;;;;;;5090520;28;20044;-51
2021/09/23 08:27:42;;;;;;;3.53;2.63;;;19.20;75.10;;;;;;5091241;28;20036;-53
2021/09/23 08:30:08;;;;;;;2.88;2.53;;;19.20;75.10;;;;;;5084409;28;20408;-53
2021/09/23 08:32:34;;;;;;;3.30;2.80;;;19.20;75.10;;;;;;5088560;28;20036;-50
2021/09/23 08:35:05;;;;;;;3.55;2.78;;;19.20;75.10;;;;;;5091822;28;20028;-53
2021/09/23 08:37:32;;;;;;;4.25;3.10;;;19.20;75.10;;;;;;5087027;28;20052;-50
2021/09/23 08:39:58;;;;;;;3.20;2.70;;;19.20;75.10;;;;;;5090890;28;20044;-53
2021/09/23 08:42:23;;;;;;;2.83;2.33;;;19.20;75.10;;;;;;5092409;28;20132;-51
2021/09/23 08:44:49;;;;;;;4.32;2.55;;;19.20;75.10;;;;;;5091330;28;20032;-49
2021/09/23 08:47:16;;;;;;;4.00;2.65;;;19.20;75.10;;;;;;5091062;28;20069;-49
2021/09/23 08:49:42;;;;;;;4.13;2.60;;;19.20;75.10;;;;;;5091016;28;20036;-54
2021/09/23 08:52:08;;;;;;;3.50;2.72;;;19.20;75.10;;;;;;5092669;28;20186;-54
2021/09/23 08:54:33;;;;;;;3.22;2.58;;;19.20;75.20;;;;;;5092403;28;20155;-54
2021/09/23 08:57:01;;;;;;;2.72;2.35;;;19.20;75.10;;;;;;5092092;28;20441;-50
2021/09/23 08:59:29;;;;;;;2.88;2.42;;;19.20;75.20;;;;;;5092175;28;20048;-54
2021/09/23 09:01:55;;;;;;;3.65;2.75;;;19.20;75.10;;;;;;5092021;28;20129;-51
2021/09/23 09:04:28;;;;;;;3.45;2.65;;;19.20;75.10;;;;;;5091975;28;20177;-53
2021/09/23 09:07:01;;;;;;;9.23;2.90;;;19.20;75.20;;;;;;5092108;28;20044;-46
2021/09/23 09:09:27;;;;;;;4.85;3.00;;;19.20;74.90;;;;;;5092269;28;20036;-49
2021/09/23 09:11:55;;;;;;;4.18;2.67;;;19.20;75.00;;;;;;5088300;28;20618;-51
2021/09/23 09:14:29;;;;;;;4.60;2.70;;;19.20;75.00;;;;;;5088860;28;20051;-46
2021/09/23 09:17:01;;;;;;;4.65;2.47;;;19.20;75.10;;;;;;5089846;28;20120;-47
2021/09/23 09:19:42;;;;;;;4.53;2.45;;;19.20;75.10;;;;;;5090419;28;20044;-47
2021/09/23 09:22:13;;;;;;;3.92;2.47;;;19.20;75.20;;;;;;5091248;28;20127;-53
2021/09/23 09:24:51;;;;;;;3.97;2.50;;;19.20;75.20;;;;;;5090094;28;20101;-48
2021/09/23 09:27:29;;;;;;;3.55;2.47;;;19.20;75.20;;;;;;5090126;28;20131;-48
2021/09/23 09:30:00;;;;;;;3.90;2.78;;;19.20;75.30;;;;;;5091839;28;20040;-49
2021/09/23 09:32:36;;;;;;;3.72;2.42;;;19.20;75.90;;;;;;5091112;28;20039;-52
2021/09/23 09:35:03;;;;;;;11.30;2.88;;;19.20;75.20;;;;;;5091541;28;20040;-54
2021/09/23 09:37:32;;;;;;;7.43;2.42;;;19.20;75.20;;;;;;5092621;28;20044;-51
2021/09/23 09:40:00;;;;;;;6.10;2.63;;;19.20;75.20;;;;;;5095298;28;20047;-49
2021/09/23 09:42:32;;;;;;;4.93;2.88;;;19.20;75.30;;;;;;5094474;28;20055;-52
2021/09/23 09:44:59;;;;;;;3.85;2.20;;;19.20;75.40;;;;;;5095301;28;20040;-50
2021/09/23 09:47:28;;;;;;;4.88;2.60;;;19.20;75.40;;;;;;5093177;28;20420;-50
2021/09/23 09:49:53;;;;;;;2.67;2.10;;;19.20;75.40;;;;;;5094447;28;20040;-49
2021/09/23 09:52:30;;;;;;;3.10;1.92;;;19.20;75.40;;;;;;5093386;28;20105;-51
2021/09/23 09:55:10;;;;;;;4.65;2.42;;;19.30;75.50;;;;;;5094702;28;20075;-55
2021/09/23 09:57:49;;;;;;;3.65;2.35;;;19.20;75.50;;;;;;5093574;28;20059;-51
2021/09/23 10:00:17;;;;;;;3.70;2.08;;;19.30;75.50;;;;;;5094946;28;20047;-52
2021/09/23 10:02:46;;;;;;;2.65;1.90;;;19.20;75.40;;;;;;5094080;28;20094;-53
2021/09/23 10:05:14;;;;;;;4.75;2.50;;;19.20;75.40;;;;;;5094942;28;20052;-53
2021/09/23 10:07:41;;;;;;;4.53;2.30;;;19.20;75.40;;;;;;5093270;28;20093;-53
2021/09/23 10:10:09;;;;;;;3.10;1.88;;;19.20;75.40;;;;;;5094147;28;20507;-53
2021/09/23 10:12:39;;;;;;;3.75;2.08;;;19.20;75.40;;;;;;5093505;28;20028;-50
2021/09/23 10:15:06;;;;;;;3.85;2.50;;;19.20;75.40;;;;;;5094668;28;20044;-56
2021/09/23 10:17:32;;;;;;;3.78;2.20;;;19.20;75.40;;;;;;5093832;28;20123;-53
2021/09/23 10:20:00;;;;;;;4.13;2.40;;;19.20;75.40;;;;;;5094239;28;20119;-53
2021/09/23 10:22:27;;;;;;;2.25;1.85;;;19.20;75.40;;;;;;5094652;28;20079;-51
2021/09/23 10:24:55;;;;;;;3.90;2.20;;;19.20;75.40;;;;;;5094883;28;20097;-53
2021/09/23 10:30:08;;;;;;;3.22;1.60;;;19.30;75.50;;;;;;5091108;28;20054;-53
2021/09/23 10:32:34;;;;;;;2.50;1.70;;;19.20;75.40;;;;;;5089540;28;20052;-50
2021/09/23 10:35:00;;;;;;;2.55;1.77;;;19.20;75.40;;;;;;5093155;28;20420;-49
2021/09/23 10:37:27;;;;;;;2.90;1.85;;;19.20;75.40;;;;;;5094018;28;20044;-49
2021/09/23 10:39:53;;;;;;;3.25;2.28;;;19.30;75.50;;;;;;5093104;28;20072;-54
2021/09/23 10:42:21;;;;;;;3.17;2.00;;;19.30;75.50;;;;;;5092860;28;20709;-52
2021/09/23 10:44:52;;;;;;;2.63;1.77;;;19.20;75.40;;;;;;5090499;28;20087;-49
2021/09/23 10:47:36;;;;;;;3.67;1.92;;;19.30;75.40;;;;;;5093701;28;20089;-53
2021/09/23 10:50:04;;;;;;;2.13;1.80;;;19.30;75.60;;;;;;5092722;28;20047;-49
2021/09/23 10:52:34;;;;;;;3.25;1.90;;;19.30;75.50;;;;;;5083417;28;20176;-47
2021/09/23 10:55:02;;;;;;;2.67;1.90;;;19.30;75.50;;;;;;5088743;28;20396;-51
2021/09/23 10:57:29;;;;;;;2.00;1.50;;;19.20;75.40;;;;;;5093359;28;20048;-49
2021/09/23 10:59:58;;;;;;;2.92;1.83;;;19.30;75.40;;;;;;5092071;28;20036;-48
2021/09/23 11:02:33;;;;;;;2.35;1.55;;;19.30;75.40;;;;;;5093321;28;20035;-52
2021/09/23 11:05:02;;;;;;;3.70;1.70;;;19.30;75.50;;;;;;5093472;28;20055;-55
2021/09/23 11:07:29;;;;;;;3.63;1.60;;;19.30;75.40;;;;;;5089667;28;20054;-50
2021/09/23 11:10:07;;;;;;;2.42;1.60;;;19.20;75.40;;;;;;5093300;28;20478;-51
2021/09/23 11:12:34;;;;;;;2.75;1.75;;;19.30;75.50;;;;;;5093197;28;20083;-55
2021/09/23 11:15:01;;;;;;;2.00;1.50;;;19.30;75.40;;;;;;5090681;28;20054;-48
2021/09/23 11:17:28;;;;;;;2.28;1.70;;;19.30;75.40;;;;;;5092832;28;20399;-55
2021/09/23 11:20:03;;;;;;;2.47;1.88;;;19.30;75.40;;;;;;5093059;28;20094;-52
2021/09/23 11:22:40;;;;;;;2.88;1.80;;;19.30;75.50;;;;;;5090983;28;20479;-50
2021/09/23 11:25:15;;;;;;;2.17;1.80;;;19.30;75.50;;;;;;5091858;28;20110;-51
2021/09/23 11:27:42;;;;;;;2.30;1.60;;;19.30;75.40;;;;;;5090275;28;20160;-51
2021/09/23 11:30:11;;;;;;;2.78;1.98;;;19.30;75.40;;;;;;5071004;28;20434;-54
2021/09/23 11:32:47;;;;;;;2.10;1.63;;;19.30;75.40;;;;;;5072783;28;20086;-55
2021/09/23 11:35:13;;;;;;;2.45;1.80;;;19.30;75.50;;;;;;5091353;28;20071;-49
2021/09/23 11:37:39;;;;;;;2.90;1.83;;;19.30;75.40;;;;;;5091394;28;20050;-53
2021/09/23 11:40:07;;;;;;;2.60;1.58;;;19.30;75.40;;;;;;5092248;28;20040;-55
2021/09/23 11:42:33;;;;;;;2.30;1.48;;;19.30;75.50;;;;;;5092800;28;20101;-54
2021/09/23 11:45:10;;;;;;;2.05;1.38;;;19.30;75.40;;;;;;5091642;28;20461;-55
2021/09/23 11:47:53;;;;;;;2.55;1.60;;;19.30;75.50;;;;;;5091626;28;20407;-56
2021/09/23 11:50:46;;;;;;;1.90;1.70;;;19.30;75.50;;;;;;5092427;28;20044;-55
2021/09/23 11:53:22;;;;;;;1.80;1.40;;;19.30;75.60;;;;;;5090040;28;20646;-54
2021/09/23 11:56:04;;;;;;;2.63;1.42;;;19.30;75.50;;;;;;5092520;28;20087;-55
2021/09/23 11:58:32;;;;;;;2.13;1.50;;;19.30;75.60;;;;;;5092272;28;20048;-55
2021/09/23 12:00:58;;;;;;;2.03;1.35;;;19.30;75.40;;;;;;5091752;28;20468;-55
2021/09/23 12:03:25;;;;;;;2.63;1.58;;;19.20;75.40;;;;;;5092857;28;20128;-54
2021/09/23 12:05:52;;;;;;;2.33;1.38;;;19.30;75.40;;;;;;5092522;28;20395;-55
2021/09/23 12:08:23;;;;;;;2.22;1.58;;;19.30;75.50;;;;;;5091139;28;20048;-52
2021/09/23 12:11:01;;;;;;;1.85;1.40;;;19.30;75.50;;;;;;5092580;28;20043;-53
2021/09/23 12:13:35;;;;;;;3.50;1.60;;;19.30;75.50;;;;;;5092940;28;20072;-53
2021/09/23 12:16:10;;;;;;;2.72;1.70;;;19.30;75.40;;;;;;5092226;28;20074;-52
2021/09/23 12:18:37;;;;;;;1.60;1.40;;;19.30;75.40;;;;;;5090926;28;20529;-54
2021/09/23 12:21:07;;;;;;;4.05;1.70;;;19.30;75.50;;;;;;5090914;28;20055;-53
2021/09/23 12:23:38;;;;;;;2.30;1.55;;;19.30;75.50;;;;;;5092335;28;20040;-53
2021/09/23 12:26:10;;;;;;;2.28;1.45;;;19.30;75.50;;;;;;5092150;28;20127;-55
2021/09/23 12:28:49;;;;;;;2.95;1.60;;;19.30;75.50;;;;;;5091979;28;20147;-53
2021/09/23 12:31:27;;;;;;;1.88;1.40;;;19.30;75.50;;;;;;5092793;28;20040;-53
2021/09/23 12:33:56;;;;;;;1.88;1.33;;;19.30;75.80;;;;;;5092326;28;20079;-53
2021/09/23 12:36:33;;;;;;;1.80;1.30;;;19.30;75.50;;;;;;5092263;28;20398;-53
2021/09/23 12:39:23;;;;;;;1.88;1.25;;;19.30;75.50;;;;;;5091756;28;20541;-53
2021/09/23 12:41:51;;;;;;;2.42;1.25;;;19.30;75.60;;;;;;5091989;28;20098;-53
2021/09/23 12:44:22;;;;;;;2.25;1.30;;;19.30;75.40;;;;;;5090830;28;20063;-53
2021/09/23 12:47:12;;;;;;;2.78;1.40;;;19.30;75.40;;;;;;5092156;28;20071;-53
2021/09/23 12:49:41;;;;;;;3.35;1.40;;;19.30;75.60;;;;;;5091324;28;20316;-56
2021/09/23 12:52:21;;;;;;;1.25;1.13;;;19.30;75.50;;;;;;5092308;28;20207;-56
2021/09/23 12:54:47;;;;;;;2.38;1.80;;;19.30;75.50;;;;;;5092189;28;20042;-53